Time;durP1;ratioP1;P1;durP2;ratioP2;P2;SDS_P1;SDS_P2;PMS_P1;PMS_P2;Temp;Humidity;BMP_temperature;BMP_pressure;BME280_temperature;BME280_humidity;BME280_pressure;Samples;Min_cycle;Max_cycle;Signal;HPM_P1;HPM_P2
2022/04/13 00:04:26;;;;;;;4.22;1.77;;;;;;;;;;10417359;28;20049;-70
2022/04/13 00:09:30;;;;;;;6.15;2.40;;;;;;;;;;10417641;28;20105;-69
2022/04/13 00:14:32;;;;;;;;;;;;;;;;;;10439341;28;20049;-70
2022/04/13 00:19:35;;;;;;;5.97;2.10;;;;;;;;;;10419989;28;19924;-70
2022/04/13 00:24:39;;;;;;;3.67;1.98;;;;;;;;;;10417026;28;20074;-72
2022/04/13 00:29:42;;;;;;;3.30;2.22;;;;;;;;;;10413739;28;20049;-72
2022/04/13 00:34:45;;;;;;;6.93;2.10;;;;;;;;;;10426726;28;20048;-69
2022/04/13 00:39:49;;;;;;;3.40;1.92;;;;;;;;;;10407196;28;20034;-71
2022/04/13 00:44:52;;;;;;;;;;;;;;;;;;10428390;28;20041;-68
2022/04/13 00:49:56;;;;;;;5.88;2.38;;;;;;;;;;10407392;28;19984;-70
2022/04/13 00:55:02;;;;;;;5.78;2.47;;;;;;;;;;10425269;28;20396;-70
2022/04/13 01:00:06;;;;;;;7.70;2.25;;;;;;;;;;10414108;28;20034;-69
2022/04/13 01:05:09;;;;;;;6.20;2.60;;;;;;;;;;10418005;28;20528;-70
2022/04/13 01:10:13;;;;;;;5.53;2.35;;;;;;;;;;10431571;28;20448;-69
2022/04/13 01:15:18;;;;;;;5.78;2.50;;;;;;;;;;10433871;28;20041;-70
2022/04/13 01:20:23;;;;;;;5.70;2.60;;;;;;;;;;10427283;28;20468;-69
2022/04/13 01:25:30;;;;;;;8.27;2.40;;;;;;;;;;10429857;28;20053;-70
2022/04/13 01:30:35;;;;;;;7.50;2.70;;;;;;;;;;10427800;28;20036;-69
2022/04/13 01:35:50;;;;;;;6.40;2.50;;;;;;;;;;10428573;28;20033;-70
2022/04/13 01:40:54;;;;;;;6.10;2.45;;;;;;;;;;10429055;28;20516;-69
2022/04/13 01:45:57;;;;;;;;;;;;;;;;;;10428652;28;20032;-70
2022/04/13 01:51:01;;;;;;;5.37;2.70;;;;;;;;;;10415268;28;20019;-69
2022/04/13 01:56:05;;;;;;;5.80;2.50;;;;;;;;;;10431338;28;20045;-70
2022/04/13 02:01:08;;;;;;;6.18;2.55;;;;;;;;;;10414448;28;20683;-70
2022/04/13 02:06:11;;;;;;;7.05;2.75;;;;;;;;;;10409220;28;20049;-71
2022/04/13 02:11:15;;;;;;;7.28;2.75;;;;;;;;;;10424957;28;20037;-71
2022/04/13 02:16:18;;;;;;;;;;;;;;;;;;10412235;28;20053;-70
2022/04/13 02:21:20;;;;;;;6.95;2.70;;;;;;;;;;10428142;28;19928;-69
2022/04/13 02:26:25;;;;;;;7.32;2.45;;;;;;;;;;10428144;28;20127;-69
2022/04/13 02:31:27;;;;;;;;;;;;;;;;;;10407192;28;20051;-68
2022/04/13 02:36:30;;;;;;;5.97;2.55;;;;;;;;;;10414771;28;20003;-68
2022/04/13 02:41:35;;;;;;;7.15;2.60;;;;;;;;;;10426549;28;20025;-69
2022/04/13 02:46:38;;;;;;;8.35;2.95;;;;;;;;;;10419037;28;20127;-69
2022/04/13 02:51:41;;;;;;;10.02;3.17;;;;;;;;;;10422389;28;20034;-69
2022/04/13 02:56:45;;;;;;;6.25;3.08;;;;;;;;;;10425194;28;20049;-71
2022/04/13 03:01:49;;;;;;;7.55;3.10;;;;;;;;;;10426347;28;21424;-69
2022/04/13 03:06:53;;;;;;;7.88;3.00;;;;;;;;;;10423832;28;20060;-70
2022/04/13 03:11:57;;;;;;;6.43;3.08;;;;;;;;;;10404824;28;20057;-71
2022/04/13 03:16:59;;;;;;;;;;;;;;;;;;10402548;28;20166;-70
2022/04/13 03:22:02;;;;;;;7.57;3.28;;;;;;;;;;10404930;28;19928;-68
2022/04/13 03:27:06;;;;;;;6.28;3.00;;;;;;;;;;10404151;28;20092;-68
2022/04/13 03:32:09;;;;;;;;;;;;;;;;;;10423245;28;20036;-70
2022/04/13 03:37:12;;;;;;;5.65;2.83;;;;;;;;;;10420726;28;19980;-70
2022/04/13 03:42:16;;;;;;;8.75;3.30;;;;;;;;;;10417726;28;20090;-69
2022/04/13 03:47:19;;;;;;;8.25;3.25;;;;;;;;;;10421441;28;20072;-71
2022/04/13 03:52:22;;;;;;;7.55;3.45;;;;;;;;;;10424950;28;20056;-71
2022/04/13 03:57:26;;;;;;;7.78;3.00;;;;;;;;;;10402471;28;20074;-68
2022/04/13 04:02:28;;;;;;;;;;;;;;;;;;10408623;28;20072;-69
2022/04/13 04:07:32;;;;;;;8.68;2.97;;;;;;;;;;10431573;28;19946;-68
2022/04/13 04:12:41;;;;;;;9.48;4.10;;;;;;;;;;10413465;28;20063;-69
2022/04/13 04:17:44;;;;;;;10.80;3.47;;;;;;;;;;10430466;28;20047;-69
2022/04/13 04:22:47;;;;;;;7.22;3.35;;;;;;;;;;10430884;28;20033;-70
2022/04/13 04:27:52;;;;;;;8.00;3.72;;;;;;;;;;10412984;28;20520;-71
2022/04/13 04:32:58;;;;;;;9.73;3.63;;;;;;;;;;10435522;28;20521;-69
2022/04/13 04:38:01;;;;;;;8.30;3.10;;;;;;;;;;10426806;28;20106;-71
2022/04/13 04:43:06;;;;;;;9.85;3.40;;;;;;;;;;10425321;28;20057;-69
2022/04/13 04:48:09;;;;;;;8.20;3.47;;;;;;;;;;10411501;28;20064;-72
2022/04/13 04:53:13;;;;;;;8.45;3.58;;;;;;;;;;10409736;28;20029;-70
2022/04/13 04:58:17;;;;;;;7.80;3.67;;;;;;;;;;10429063;28;20041;-71
2022/04/13 05:03:20;;;;;;;10.15;3.72;;;;;;;;;;10410536;28;20076;-71
2022/04/13 05:08:23;;;;;;;8.70;3.92;;;;;;;;;;10429525;28;20041;-68
2022/04/13 05:13:29;;;;;;;7.43;3.13;;;;;;;;;;10423237;28;20037;-70
2022/04/13 05:18:32;;;;;;;7.07;3.22;;;;;;;;;;10424871;28;20849;-70
2022/04/13 05:23:34;;;;;;;8.35;3.10;;;;;;;;;;10405403;28;20464;-71
2022/04/13 05:28:39;;;;;;;7.80;3.17;;;;;;;;;;10422930;28;20088;-70
2022/04/13 05:33:42;;;;;;;10.77;3.55;;;;;;;;;;10429999;28;20719;-70
2022/04/13 05:38:45;;;;;;;9.85;4.07;;;;;;;;;;10430650;28;20079;-71
2022/04/13 05:43:49;;;;;;;7.78;3.65;;;;;;;;;;10404292;28;20703;-70
2022/04/13 05:48:52;;;;;;;11.55;4.30;;;;;;;;;;10425997;28;20428;-71
2022/04/13 05:53:55;;;;;;;12.25;4.13;;;;;;;;;;10423640;28;20451;-69
2022/04/13 05:58:59;;;;;;;9.30;4.03;;;;;;;;;;10420166;28;20133;-71
2022/04/13 06:04:03;;;;;;;10.00;4.50;;;;;;;;;;10428938;28;20029;-71
2022/04/13 06:09:06;;;;;;;9.35;4.05;;;;;;;;;;10407312;28;20520;-69
2022/04/13 06:14:11;;;;;;;8.00;4.53;;;;;;;;;;10417515;28;20068;-69
2022/04/13 06:19:15;;;;;;;11.20;4.70;;;;;;;;;;10421525;28;20299;-69
2022/04/13 06:24:18;;;;;;;10.80;4.83;;;;;;;;;;10410667;28;20037;-71
2022/04/13 06:29:23;;;;;;;11.02;5.13;;;;;;;;;;10406892;28;20074;-69
2022/04/13 06:34:26;;;;;;;13.55;4.88;;;;;;;;;;10404213;28;20801;-70
2022/04/13 06:39:29;;;;;;;14.82;5.10;;;;;;;;;;10401104;28;20410;-71
2022/04/13 06:44:34;;;;;;;13.63;5.22;;;;;;;;;;10426405;28;20029;-68
2022/04/13 06:49:39;;;;;;;11.82;4.95;;;;;;;;;;10426757;28;20549;-70
2022/04/13 06:54:42;;;;;;;15.48;5.95;;;;;;;;;;10422568;28;20033;-70
2022/04/13 06:59:47;;;;;;;11.40;5.80;;;;;;;;;;10423740;28;20049;-70
2022/04/13 07:04:50;;;;;;;11.90;5.25;;;;;;;;;;10426175;28;20500;-70
2022/04/13 07:09:54;;;;;;;9.60;4.72;;;;;;;;;;10401388;28;20044;-71
2022/04/13 07:15:00;;;;;;;15.90;6.03;;;;;;;;;;10411444;28;20082;-69
2022/04/13 07:20:03;;;;;;;15.00;5.47;;;;;;;;;;10426148;28;20030;-70
2022/04/13 07:25:06;;;;;;;15.20;5.10;;;;;;;;;;10412296;28;20068;-69
2022/04/13 07:30:13;;;;;;;14.05;5.63;;;;;;;;;;10418775;28;20449;-71
2022/04/13 07:35:15;;;;;;;14.90;5.50;;;;;;;;;;10419662;28;20053;-70
2022/04/13 07:40:19;;;;;;;11.95;5.25;;;;;;;;;;10426574;28;20041;-72
2022/04/13 07:45:24;;;;;;;11.93;5.72;;;;;;;;;;10445308;28;20093;-71
2022/04/13 07:50:27;;;;;;;11.15;5.22;;;;;;;;;;10429953;28;20044;-70
2022/04/13 07:55:30;;;;;;;11.85;5.15;;;;;;;;;;10415823;28;20067;-71
2022/04/13 08:00:34;;;;;;;10.13;5.25;;;;;;;;;;10425420;28;20037;-70
2022/04/13 08:05:38;;;;;;;10.73;5.10;;;;;;;;;;10412498;28;20135;-71
2022/04/13 08:10:41;;;;;;;12.38;4.25;;;;;;;;;;10433343;28;20705;-71
2022/04/13 08:15:45;;;;;;;10.93;4.57;;;;;;;;;;10430900;28;20067;-70
2022/04/13 08:20:49;;;;;;;11.93;4.45;;;;;;;;;;10428109;28;20037;-70
2022/04/13 08:25:52;;;;;;;11.88;4.63;;;;;;;;;;10423744;28;20057;-71
2022/04/13 08:30:57;;;;;;;14.25;4.25;;;;;;;;;;10409979;28;20534;-71
2022/04/13 08:36:00;;;;;;;11.30;4.13;;;;;;;;;;10427007;28;20136;-69
2022/04/13 08:41:09;;;;;;;11.60;3.83;;;;;;;;;;10429411;28;20056;-72
2022/04/13 08:46:16;;;;;;;7.80;3.58;;;;;;;;;;10423212;28;20037;-70
2022/04/13 08:51:20;;;;;;;9.30;4.05;;;;;;;;;;10427713;28;20601;-71
2022/04/13 08:56:24;;;;;;;6.60;4.10;;;;;;;;;;10422651;28;20044;-70
2022/04/13 09:01:34;;;;;;;6.45;3.53;;;;;;;;;;10410964;28;20045;-71
2022/04/13 09:06:38;;;;;;;7.65;3.75;;;;;;;;;;10425259;28;20082;-70
2022/04/13 09:11:44;;;;;;;10.13;4.65;;;;;;;;;;10427150;28;20037;-73
2022/04/13 09:16:49;;;;;;;8.25;3.53;;;;;;;;;;10409450;28;20099;-69
2022/04/13 09:21:52;;;;;;;5.82;3.40;;;;;;;;;;10425506;28;20033;-71
2022/04/13 09:26:55;;;;;;;8.13;3.72;;;;;;;;;;10405608;28;20045;-70
2022/04/13 09:32:00;;;;;;;10.43;3.70;;;;;;;;;;10425294;28;20464;-71
2022/04/13 09:37:03;;;;;;;7.55;3.70;;;;;;;;;;10423856;28;20041;-71
2022/04/13 09:42:06;;;;;;;8.40;3.78;;;;;;;;;;10419541;28;20080;-71
2022/04/13 09:47:11;;;;;;;6.72;3.63;;;;;;;;;;10429391;28;20041;-71
2022/04/13 09:52:15;;;;;;;4.47;3.80;;;;;;;;;;10423574;28;20025;-70
2022/04/13 09:57:22;;;;;;;7.38;4.13;;;;;;;;;;10407027;28;20048;-71
2022/04/13 10:02:36;;;;;;;5.78;3.70;;;;;;;;;;10426049;28;20033;-70
2022/04/13 10:07:39;;;;;;;11.32;4.25;;;;;;;;;;10427017;28;20668;-72
2022/04/13 10:12:49;;;;;;;8.60;4.35;;;;;;;;;;10428306;28;20039;-71
2022/04/13 10:17:59;;;;;;;7.63;4.80;;;;;;;;;;10424880;28;20032;-72
2022/04/13 10:23:04;;;;;;;7.90;4.85;;;;;;;;;;10405055;28;20052;-72
2022/04/13 10:28:07;;;;;;;7.72;5.00;;;;;;;;;;10419323;28;20076;-71
2022/04/13 10:33:11;;;;;;;7.38;4.65;;;;;;;;;;10424753;28;20094;-71
2022/04/13 10:38:14;;;;;;;8.00;5.32;;;;;;;;;;10407146;28;20033;-71
2022/04/13 10:43:18;;;;;;;6.47;4.47;;;;;;;;;;10424609;28;20057;-71
2022/04/13 10:48:27;;;;;;;7.07;4.60;;;;;;;;;;10416288;28;20041;-70
2022/04/13 10:53:31;;;;;;;8.52;4.95;;;;;;;;;;10419206;28;20041;-72
2022/04/13 10:58:38;;;;;;;10.52;4.70;;;;;;;;;;10425598;28;20033;-72
2022/04/13 11:03:42;;;;;;;7.70;4.97;;;;;;;;;;10405258;28;20033;-70
2022/04/13 11:08:50;;;;;;;6.85;5.00;;;;;;;;;;10422978;28;20112;-73
2022/04/13 11:13:54;;;;;;;6.15;4.70;;;;;;;;;;10423803;28;20636;-70
2022/04/13 11:19:16;;;;;;;8.95;6.55;;;;;;;;;;10418420;28;20123;-71
2022/04/13 11:24:33;;;;;;;7.25;5.70;;;;;;;;;;10419076;28;20095;-70
2022/04/13 11:29:37;;;;;;;9.98;5.93;;;;;;;;;;10401439;28;20424;-71
2022/04/13 11:34:41;;;;;;;6.53;5.30;;;;;;;;;;10416424;28;20083;-70
2022/04/13 11:39:50;;;;;;;6.35;4.80;;;;;;;;;;10419985;28;20421;-70
2022/04/13 11:44:55;;;;;;;8.60;5.00;;;;;;;;;;10416539;28;20373;-70
2022/04/13 11:50:02;;;;;;;7.82;6.20;;;;;;;;;;10409152;28;20107;-71
2022/04/13 11:55:14;;;;;;;9.18;5.55;;;;;;;;;;10422187;28;20045;-71
2022/04/13 12:00:32;;;;;;;9.40;5.90;;;;;;;;;;10402103;28;20037;-72
2022/04/13 12:05:36;;;;;;;8.00;5.47;;;;;;;;;;10419733;28;20703;-72
2022/04/13 12:10:44;;;;;;;9.98;6.10;;;;;;;;;;10419247;28;20049;-71
2022/04/13 12:15:50;;;;;;;8.65;5.32;;;;;;;;;;10411304;28;20037;-70
2022/04/13 12:20:54;;;;;;;9.95;5.38;;;;;;;;;;10424504;28;20037;-70
2022/04/13 12:25:59;;;;;;;9.07;5.45;;;;;;;;;;10426118;28;20038;-71
2022/04/13 12:31:03;;;;;;;7.15;4.80;;;;;;;;;;10431429;28;20048;-72
2022/04/13 12:36:07;;;;;;;9.73;5.10;;;;;;;;;;10423679;28;20067;-70
2022/04/13 12:41:15;;;;;;;11.25;6.05;;;;;;;;;;10428160;28;20061;-70
2022/04/13 12:46:19;;;;;;;7.68;5.80;;;;;;;;;;10421222;28;20036;-71
2022/04/13 12:51:22;;;;;;;7.75;6.05;;;;;;;;;;10426262;28;20037;-71
2022/04/13 12:56:27;;;;;;;11.50;7.32;;;;;;;;;;10422564;28;20057;-72
2022/04/13 13:01:32;;;;;;;9.00;6.03;;;;;;;;;;10422665;28;20155;-72
2022/04/13 13:06:37;;;;;;;13.88;7.20;;;;;;;;;;10425340;28;20142;-73
2022/04/13 13:11:53;;;;;;;11.98;7.03;;;;;;;;;;10425596;28;20077;-71
2022/04/13 13:16:55;;;;;;;12.65;7.28;;;;;;;;;;10405528;28;20045;-72
2022/04/13 13:22:08;;;;;;;9.53;5.93;;;;;;;;;;10409553;28;20046;-73
2022/04/13 13:27:13;;;;;;;9.40;5.78;;;;;;;;;;10428553;28;20254;-70
2022/04/13 13:32:18;;;;;;;8.57;5.80;;;;;;;;;;10421611;28;20501;-71
2022/04/13 13:37:28;;;;;;;9.43;5.30;;;;;;;;;;10428622;28;20041;-71
2022/04/13 13:42:41;;;;;;;11.60;6.50;;;;;;;;;;10409097;28;20103;-71
2022/04/13 13:47:45;;;;;;;9.48;6.28;;;;;;;;;;10416986;28;20627;-70
2022/04/13 13:52:47;;;;;;;11.57;5.72;;;;;;;;;;10413139;28;20114;-72
2022/04/13 13:57:53;;;;;;;12.02;6.00;;;;;;;;;;10405522;28;20076;-72
2022/04/13 14:02:56;;;;;;;10.63;6.35;;;;;;;;;;10425309;28;20071;-71
2022/04/13 14:08:00;;;;;;;9.02;5.15;;;;;;;;;;10401341;28;20032;-70
2022/04/13 14:13:05;;;;;;;10.13;5.57;;;;;;;;;;10420408;28;20645;-70
2022/04/13 14:18:08;;;;;;;9.55;5.47;;;;;;;;;;10422735;28;20662;-71
2022/04/13 14:23:11;;;;;;;9.55;6.20;;;;;;;;;;10429243;28;20335;-70
2022/04/13 14:28:15;;;;;;;11.65;5.93;;;;;;;;;;10423222;28;20086;-69
2022/04/13 14:33:18;;;;;;;11.95;6.47;;;;;;;;;;10427761;28;20041;-71
2022/04/13 14:38:21;;;;;;;10.85;6.22;;;;;;;;;;10421518;28;20555;-70
2022/04/13 14:43:26;;;;;;;10.07;5.57;;;;;;;;;;10406957;28;20029;-70
2022/04/13 14:48:29;;;;;;;10.10;5.50;;;;;;;;;;10410167;28;20076;-72
2022/04/13 14:53:32;;;;;;;8.95;5.35;;;;;;;;;;10411177;28;20040;-72
2022/04/13 14:58:37;;;;;;;13.07;5.85;;;;;;;;;;10403712;28;20041;-70
2022/04/13 15:03:40;;;;;;;8.80;4.78;;;;;;;;;;10419989;28;20033;-74
2022/04/13 15:08:44;;;;;;;11.35;5.07;;;;;;;;;;10401522;28;20057;-71
2022/04/13 15:13:49;;;;;;;10.52;4.78;;;;;;;;;;10416095;28;20450;-72
2022/04/13 15:18:52;;;;;;;10.50;5.00;;;;;;;;;;10420486;28;20033;-69
2022/04/13 15:23:54;;;;;;;10.93;5.32;;;;;;;;;;10423465;28;20033;-70
2022/04/13 15:28:59;;;;;;;9.13;4.82;;;;;;;;;;10426412;28;20486;-70
2022/04/13 15:34:01;;;;;;;9.82;4.72;;;;;;;;;;10426725;28;20037;-70
2022/04/13 15:39:04;;;;;;;;;;;;;;;;;;10422470;28;20041;-71
2022/04/13 15:44:11;;;;;;;9.55;4.93;;;;;;;;;;10407974;28;20163;-68
2022/04/13 15:49:15;;;;;;;8.73;4.18;;;;;;;;;;10400620;28;20037;-71
2022/04/13 15:54:17;;;;;;;;;;;;;;;;;;10401970;28;20172;-71
2022/04/13 15:59:22;;;;;;;11.13;5.40;;;;;;;;;;10428632;28;19924;-70
2022/04/13 16:04:26;;;;;;;12.57;6.10;;;;;;;;;;10434759;28;20057;-69
2022/04/13 16:09:29;;;;;;;12.20;4.80;;;;;;;;;;10430189;28;20043;-71
2022/04/13 16:14:33;;;;;;;8.05;4.40;;;;;;;;;;10432876;28;20037;-72
2022/04/13 16:19:36;;;;;;;10.75;4.97;;;;;;;;;;10427875;28;20064;-71
2022/04/13 16:24:39;;;;;;;8.68;4.07;;;;;;;;;;10430644;28;20099;-70
2022/04/13 16:29:43;;;;;;;11.32;4.72;;;;;;;;;;10429593;28;20037;-71
2022/04/13 16:34:46;;;;;;;9.43;4.70;;;;;;;;;;10426341;28;20492;-72
2022/04/13 16:39:49;;;;;;;9.43;4.38;;;;;;;;;;10423387;28;20095;-72
2022/04/13 16:44:54;;;;;;;11.32;5.05;;;;;;;;;;10439155;28;20438;-70
2022/04/13 16:49:59;;;;;;;12.05;5.10;;;;;;;;;;10440107;28;20045;-70
2022/04/13 16:55:04;;;;;;;16.95;5.60;;;;;;;;;;10422874;28;20224;-73
2022/04/13 17:00:09;;;;;;;18.48;6.30;;;;;;;;;;10444265;28;20033;-70
2022/04/13 17:05:11;;;;;;;11.68;5.13;;;;;;;;;;10439460;28;20056;-71
2022/04/13 17:10:14;;;;;;;16.13;5.72;;;;;;;;;;10436866;28;20090;-72
2022/04/13 17:15:19;;;;;;;11.82;5.18;;;;;;;;;;10422690;28;20037;-70
2022/04/13 17:20:24;;;;;;;12.52;5.05;;;;;;;;;;10436400;28;20051;-70
2022/04/13 17:25:27;;;;;;;14.85;5.45;;;;;;;;;;10428039;28;20049;-71
2022/04/13 17:30:32;;;;;;;15.50;5.95;;;;;;;;;;10409984;28;20041;-71
2022/04/13 17:35:36;;;;;;;13.50;5.45;;;;;;;;;;10410288;28;20036;-71
2022/04/13 17:40:40;;;;;;;12.35;5.75;;;;;;;;;;10423770;28;20088;-71
2022/04/13 17:45:44;;;;;;;11.70;4.97;;;;;;;;;;10425342;28;20033;-72
2022/04/13 17:50:48;;;;;;;14.85;5.97;;;;;;;;;;10418233;28;20035;-71
2022/04/13 17:55:51;;;;;;;16.17;5.63;;;;;;;;;;10409239;28;20029;-71
2022/04/13 18:00:57;;;;;;;19.10;5.38;;;;;;;;;;10408846;28;20045;-72
2022/04/13 18:06:00;;;;;;;12.10;4.93;;;;;;;;;;10422693;28;20148;-70
2022/04/13 18:11:03;;;;;;;14.80;5.75;;;;;;;;;;10419035;28;20205;-71
2022/04/13 18:16:08;;;;;;;14.63;5.90;;;;;;;;;;10426086;28;20556;-70
2022/04/13 18:21:11;;;;;;;18.02;5.82;;;;;;;;;;10426226;28;20070;-70
2022/04/13 18:26:15;;;;;;;14.88;6.38;;;;;;;;;;10424658;28;20037;-69
2022/04/13 18:31:19;;;;;;;14.73;6.13;;;;;;;;;;10423553;28;20037;-73
2022/04/13 18:36:22;;;;;;;14.88;6.47;;;;;;;;;;10430824;28;20036;-70
2022/04/13 18:41:26;;;;;;;17.33;7.53;;;;;;;;;;10422338;28;20602;-70
2022/04/13 18:46:30;;;;;;;18.00;6.57;;;;;;;;;;10420673;28;20045;-71
2022/04/13 18:51:33;;;;;;;18.30;7.03;;;;;;;;;;10418616;28;20052;-70
2022/04/13 18:56:36;;;;;;;18.77;7.43;;;;;;;;;;10420397;28;20697;-72
2022/04/13 19:01:40;;;;;;;14.47;6.17;;;;;;;;;;10410566;28;20650;-70
2022/04/13 19:06:43;;;;;;;12.15;5.78;;;;;;;;;;10417620;28;20041;-70
2022/04/13 19:11:48;;;;;;;17.92;8.13;;;;;;;;;;10406993;28;20140;-71
2022/04/13 19:16:52;;;;;;;24.80;11.13;;;;;;;;;;10420688;28;20452;-70
2022/04/13 19:21:56;;;;;;;16.15;6.90;;;;;;;;;;10405776;28;20535;-70
2022/04/13 19:26:59;;;;;;;13.82;6.75;;;;;;;;;;10422037;28;20040;-70
2022/04/13 19:32:04;;;;;;;18.23;7.70;;;;;;;;;;10425614;28;20052;-71
2022/04/13 19:37:08;;;;;;;22.48;10.10;;;;;;;;;;10429954;28;20124;-71
2022/04/13 19:42:17;;;;;;;16.35;6.80;;;;;;;;;;10413927;28;20345;-68
2022/04/13 19:47:22;;;;;;;15.57;6.97;;;;;;;;;;10408084;28;20098;-70
2022/04/13 19:52:26;;;;;;;23.85;10.68;;;;;;;;;;10423236;28;20094;-69
2022/04/13 19:57:28;;;;;;;18.45;8.43;;;;;;;;;;10412142;28;20037;-73
2022/04/13 20:02:33;;;;;;;16.15;7.28;;;;;;;;;;10428055;28;20034;-70
2022/04/13 20:07:36;;;;;;;17.98;7.63;;;;;;;;;;10423764;28;20920;-71
2022/04/13 20:12:38;;;;;;;14.75;7.05;;;;;;;;;;10413686;28;20037;-71
2022/04/13 20:17:43;;;;;;;16.55;7.85;;;;;;;;;;10423901;28;20065;-70
2022/04/13 20:22:46;;;;;;;17.08;7.50;;;;;;;;;;10410165;28;20433;-70
2022/04/13 20:27:49;;;;;;;18.35;7.85;;;;;;;;;;10426452;28;20250;-70
2022/04/13 20:32:53;;;;;;;19.03;7.23;;;;;;;;;;10405526;28;20091;-72
2022/04/13 20:37:56;;;;;;;27.95;9.15;;;;;;;;;;10409059;28;20084;-71
2022/04/13 20:43:02;;;;;;;20.52;8.05;;;;;;;;;;10408034;28;20712;-69
2022/04/13 20:48:09;;;;;;;20.42;9.27;;;;;;;;;;10406286;28;20374;-68
2022/04/13 20:53:12;;;;;;;16.05;7.75;;;;;;;;;;10423712;28;20045;-68
2022/04/13 20:58:15;;;;;;;16.20;7.60;;;;;;;;;;10427328;28;20049;-69
2022/04/13 21:03:19;;;;;;;16.33;8.23;;;;;;;;;;10434356;28;20038;-71
2022/04/13 21:08:23;;;;;;;21.50;8.75;;;;;;;;;;10423906;28;20378;-66
2022/04/13 21:13:29;;;;;;;;;;;;;;;;;;10422854;28;20051;-67
2022/04/13 21:18:34;;;;;;;21.35;10.15;;;;;;;;;;10409376;28;20242;-68
2022/04/13 21:23:37;;;;;;;16.92;9.15;;;;;;;;;;10426374;28;20559;-67
2022/04/13 21:28:41;;;;;;;23.73;9.37;;;;;;;;;;10424055;28;20043;-67
2022/04/13 21:33:45;;;;;;;25.30;10.00;;;;;;;;;;10429213;28;20076;-68
2022/04/13 21:38:49;;;;;;;18.38;8.55;;;;;;;;;;10427801;28;20326;-68
2022/04/13 21:43:52;;;;;;;24.65;10.27;;;;;;;;;;10424148;28;20041;-67
2022/04/13 21:48:56;;;;;;;21.13;9.50;;;;;;;;;;10423819;28;20021;-69
2022/04/13 21:53:59;;;;;;;22.25;9.93;;;;;;;;;;10407750;28;20099;-66
2022/04/13 21:59:03;;;;;;;24.03;9.97;;;;;;;;;;10427097;28;20401;-67
2022/04/13 22:04:08;;;;;;;21.05;9.73;;;;;;;;;;10423423;28;20044;-66
2022/04/13 22:09:12;;;;;;;21.13;9.48;;;;;;;;;;10424215;28;20038;-69
2022/04/13 22:14:15;;;;;;;24.38;10.00;;;;;;;;;;10427474;28;20037;-68
2022/04/13 22:19:19;;;;;;;20.63;10.43;;;;;;;;;;10427498;28;20292;-68
2022/04/13 22:24:23;;;;;;;27.58;10.30;;;;;;;;;;10422495;28;20033;-67
2022/04/13 22:29:29;;;;;;;22.85;9.23;;;;;;;;;;10404122;28;20030;-70
2022/04/13 22:34:34;;;;;;;19.08;9.68;;;;;;;;;;10423125;28;20044;-70
2022/04/13 22:39:38;;;;;;;23.52;10.90;;;;;;;;;;10404883;28;20040;-70
2022/04/13 22:44:41;;;;;;;22.95;10.50;;;;;;;;;;10427919;28;20097;-69
2022/04/13 22:49:46;;;;;;;19.88;9.50;;;;;;;;;;10422903;28;20110;-69
2022/04/13 22:54:49;;;;;;;26.30;10.23;;;;;;;;;;10423295;28;20036;-70
2022/04/13 22:59:53;;;;;;;26.10;10.23;;;;;;;;;;10417511;28;20033;-69
2022/04/13 23:04:57;;;;;;;22.08;10.10;;;;;;;;;;10406390;28;20056;-68
2022/04/13 23:10:01;;;;;;;27.10;10.18;;;;;;;;;;10416365;28;20033;-68
2022/04/13 23:15:05;;;;;;;20.85;11.05;;;;;;;;;;10421523;28;20033;-70
2022/04/13 23:20:10;;;;;;;26.27;10.03;;;;;;;;;;10427211;28;20087;-69
2022/04/13 23:25:13;;;;;;;21.77;9.88;;;;;;;;;;10421232;28;20071;-69
2022/04/13 23:30:16;;;;;;;23.00;10.20;;;;;;;;;;10421555;28;20108;-68
2022/04/13 23:35:20;;;;;;;19.75;9.63;;;;;;;;;;10421840;28;20117;-69
2022/04/13 23:40:23;;;;;;;25.52;9.95;;;;;;;;;;10427677;28;20056;-71
2022/04/13 23:45:26;;;;;;;22.75;10.30;;;;;;;;;;10423242;28;20073;-70
2022/04/13 23:50:31;;;;;;;24.70;10.57;;;;;;;;;;10413705;28;20091;-70
2022/04/13 23:55:34;;;;;;;20.70;10.27;;;;;;;;;;10408221;28;20041;-71
